Blairsville, Indiana
Current Conditions -  °F | °C
As of 5:54 AM on Thursday 29 Jan 2015 (Local Time) from KEVV Reporting Station
Clear Clear  
Wind Chill: 11°   Ceiling: Unl
Heat Index: 11°   Visibility: 10mi
Dew Point:   Wind: 15mph
Humidity: 56%   Direction: 210°SSW
Pressure: 29.86"   Gusts: NA
Location:  38.0787°N, 87.7717°W
Report Text: KEVV 291154Z 21013KT 10SM CLR 11/02 A2986 RMK AO2 SLP111 60002 70002 T01060022 10111 20061 56018
Loading
Personal Weather Stations






























Interactive Weather Map New forecast layout! Learn more

10-Day Weather Forecast

Advertisements
Track Severe Weather on mobile